Time;durP1;ratioP1;P1;durP2;ratioP2;P2;SDS_P1;SDS_P2;PMS_P1;PMS_P2;Temp;Humidity;BMP_temperature;BMP_pressure;BME280_temperature;BME280_humidity;BME280_pressure;Samples;Min_cycle;Max_cycle;Signal;HPM_P1;HPM_P2
2021/01/17 00:01:03;;;;;;;;;;;;;;;-19.29;66.33;100111.98;1838222;78;20387;-66
2021/01/17 00:03:31;;;;;;;;;;;;;;;-19.32;66.34;100121.33;1838276;78;20555;-66
2021/01/17 00:05:59;;;;;;;;;;;;;;;-19.30;66.31;100118.57;1838237;77;22065;-66
2021/01/17 00:08:26;;;;;;;;;;;;;;;-19.29;66.16;100111.61;1838219;77;20475;-66
2021/01/17 00:10:55;;;;;;;;;;;;;;;-19.29;65.99;100110.37;1838278;78;20457;-66
2021/01/17 00:13:23;;;;;;;;;;;;;;;-19.31;65.76;100115.61;1838193;77;20131;-66
2021/01/17 00:15:52;;;;;;;;;;;;;;;-19.35;65.66;100103.78;1838247;78;20147;-66
2021/01/17 00:18:21;;;;;;;;;;;;;;;-19.36;65.43;100109.88;1838320;78;22157;-66
2021/01/17 00:20:51;;;;;;;;;;;;;;;-19.44;65.20;100104.44;1838465;78;20539;-66
2021/01/17 00:23:20;;;;;;;;;;;;;;;-19.51;65.11;100111.04;1838268;78;20394;-66
2021/01/17 00:25:48;;;;;;;;;;;;;;;-19.56;65.14;100109.89;1838315;78;20489;-66
2021/01/17 00:28:16;;;;;;;;;;;;;;;-19.58;65.13;100108.07;1838271;77;20489;-66
2021/01/17 00:30:44;;;;;;;;;;;;;;;-19.61;65.08;100108.38;1838225;78;22188;-66
2021/01/17 00:33:13;;;;;;;;;;;;;;;-19.63;64.96;100113.62;1838207;78;20414;-66
2021/01/17 00:35:42;;;;;;;;;;;;;;;-19.66;64.85;100112.56;1838226;78;20147;-66
2021/01/17 00:38:10;;;;;;;;;;;;;;;-19.67;64.96;100115.80;1838202;78;20619;-66
2021/01/17 00:40:38;;;;;;;;;;;;;;;-19.69;65.05;100123.14;1838341;78;20398;-66
2021/01/17 00:43:06;;;;;;;;;;;;;;;-19.69;64.95;100123.14;1838199;78;22130;-66
2021/01/17 00:45:34;;;;;;;;;;;;;;;-19.70;64.91;100118.95;1838145;78;20536;-67
2021/01/17 00:48:03;;;;;;;;;;;;;;;-19.69;65.00;100118.56;1838203;77;20370;-67
2021/01/17 00:50:31;;;;;;;;;;;;;;;-19.67;64.97;100123.24;1838171;78;20131;-67
2021/01/17 00:53:00;;;;;;;;;;;;;;;-19.68;64.90;100108.75;1843665;76;20484;-67
2021/01/17 00:55:29;;;;;;;;;;;;;;;-19.67;64.88;100107.99;1843042;76;23162;-67
2021/01/17 00:57:58;;;;;;;;;;;;;;;-19.67;64.83;100105.89;1844311;78;20370;-66
2021/01/17 01:00:28;;;;;;;;;;;;;;;-19.69;64.83;100107.03;1844471;78;20401;-66
2021/01/17 01:03:01;;;;;;;;;;;;;;;-19.66;64.92;100108.47;1828808;78;20409;-65
2021/01/17 01:05:29;;;;;;;;;;;;;;;-19.66;64.66;100108.85;1844405;78;20460;-66
2021/01/17 01:07:59;;;;;;;;;;;;;;;-19.69;64.58;100103.70;1844414;78;22401;-66
2021/01/17 01:10:26;;;;;;;;;;;;;;;-19.73;64.43;100094.34;1844355;78;20607;-66
2021/01/17 01:12:55;;;;;;;;;;;;;;;-19.77;64.30;100095.77;1844330;76;20485;-66
2021/01/17 01:15:23;;;;;;;;;;;;;;;-19.82;64.15;100094.98;1844312;78;20943;-66
2021/01/17 01:17:52;;;;;;;;;;;;;;;-19.88;64.20;100096.69;1844365;78;20504;-66
2021/01/17 01:20:19;;;;;;;;;;;;;;;-19.90;64.32;100098.20;1844350;77;21230;-66
2021/01/17 01:22:47;;;;;;;;;;;;;;;-19.91;64.53;100096.48;1844287;78;20524;-66
2021/01/17 01:25:15;;;;;;;;;;;;;;;-19.90;64.77;100092.39;1844348;78;20469;-66
2021/01/17 01:27:47;;;;;;;;;;;;;;;-19.90;64.92;100104.40;1844311;78;21927;-66
2021/01/17 01:30:16;;;;;;;;;;;;;;;-19.88;65.14;100097.92;1844396;78;20492;-66
2021/01/17 01:32:45;;;;;;;;;;;;;;;-19.83;65.33;100090.41;1844336;78;21138;-66
2021/01/17 01:35:14;;;;;;;;;;;;;;;-19.80;65.26;100093.09;1843921;77;20518;-66
2021/01/17 01:37:42;;;;;;;;;;;;;;;-19.79;65.25;100093.56;1844397;76;20385;-66
2021/01/17 01:40:11;;;;;;;;;;;;;;;-19.79;65.21;100098.52;1844304;78;20163;-66
2021/01/17 01:42:42;;;;;;;;;;;;;;;-19.78;65.34;100097.77;1844359;76;20135;-66
2021/01/17 01:45:11;;;;;;;;;;;;;;;-19.74;65.35;100092.25;1844436;78;22138;-67
2021/01/17 01:47:39;;;;;;;;;;;;;;;-19.72;65.22;100103.12;1844360;78;20127;-67
2021/01/17 01:50:09;;;;;;;;;;;;;;;-19.74;65.11;100096.34;1844287;78;20489;-67
2021/01/17 01:52:37;;;;;;;;;;;;;;;-19.78;64.95;100091.95;1844186;76;20107;-67
2021/01/17 01:55:06;;;;;;;;;;;;;;;-19.81;64.72;100097.95;1844334;78;20407;-67
2021/01/17 01:57:34;;;;;;;;;;;;;;;-19.88;64.46;100093.35;1844283;77;21326;-67
2021/01/17 02:00:04;;;;;;;;;;;;;;;-19.92;64.48;100095.16;1844258;78;20670;-67
2021/01/17 02:02:44;;;;;;;;;;;;;;;-19.93;64.45;100098.01;1843287;76;20515;-67
2021/01/17 02:05:13;;;;;;;;;;;;;;;-19.94;64.27;100104.96;1844331;78;20111;-67
2021/01/17 02:07:51;;;;;;;;;;;;;;;-19.95;64.17;100104.48;1844325;78;20148;-67
2021/01/17 02:10:19;;;;;;;;;;;;;;;-19.97;64.00;100099.42;1844330;77;21336;-67
2021/01/17 02:12:51;;;;;;;;;;;;;;;-20.00;63.95;100110.41;1844193;77;20927;-67
2021/01/17 02:15:27;;;;;;;;;;;;;;;-20.01;63.97;100112.41;1844017;78;20413;-67
2021/01/17 02:17:56;;;;;;;;;;;;;;;-20.01;64.08;100102.88;1844249;78;20143;-67
2021/01/17 02:20:24;;;;;;;;;;;;;;;-20.00;64.21;100101.73;1844309;78;20382;-67
2021/01/17 02:23:01;;;;;;;;;;;;;;;-19.99;64.10;100106.31;1844297;78;21302;-68
2021/01/17 02:25:34;;;;;;;;;;;;;;;-20.00;64.05;100102.11;1844374;78;20437;-67
2021/01/17 02:28:16;;;;;;;;;;;;;;;-20.01;64.10;100095.44;1843933;77;20404;-68
2021/01/17 02:30:46;;;;;;;;;;;;;;;-20.02;64.19;100094.58;1844310;78;20456;-65
2021/01/17 02:33:17;;;;;;;;;;;;;;;-20.01;64.32;100096.68;1844366;77;20179;-68
2021/01/17 02:35:45;;;;;;;;;;;;;;;-20.00;64.26;100095.92;1844266;78;23589;-67
2021/01/17 02:38:40;;;;;;;;;;;;;;;-19.99;64.18;100093.92;1844217;76;20489;-67
2021/01/17 02:41:21;;;;;;;;;;;;;;;-20.04;63.98;100096.48;1843825;77;20382;-66
2021/01/17 02:43:49;;;;;;;;;;;;;;;-20.09;64.17;100096.17;1844390;78;20466;-67
2021/01/17 02:46:18;;;;;;;;;;;;;;;-20.08;64.37;100090.47;1844248;77;20409;-67
2021/01/17 02:48:46;;;;;;;;;;;;;;;-20.09;64.42;100088.75;1844303;76;21334;-67
2021/01/17 02:51:14;;;;;;;;;;;;;;;-20.07;64.53;100087.23;1844218;78;20179;-67
2021/01/17 02:53:47;;;;;;;;;;;;;;;-20.03;64.65;100090.77;1844162;77;20477;-67
2021/01/17 02:56:18;;;;;;;;;;;;;;;-19.98;64.65;100086.94;1844277;78;20138;-67
2021/01/17 02:58:48;;;;;;;;;;;;;;;-19.94;64.64;100083.90;1844383;78;20123;-68
2021/01/17 03:01:21;;;;;;;;;;;;;;;-19.91;64.69;100082.00;1843808;77;21164;-67
2021/01/17 03:03:50;;;;;;;;;;;;;;;-19.86;64.68;100084.02;1844261;78;20150;-67
2021/01/17 03:06:18;;;;;;;;;;;;;;;-19.81;64.66;100083.08;1844350;78;20393;-66
2021/01/17 03:08:45;;;;;;;;;;;;;;;-19.78;64.62;100082.04;1844262;78;20462;-67
2021/01/17 03:11:14;;;;;;;;;;;;;;;-19.78;64.56;100087.85;1844317;78;20441;-67
2021/01/17 03:13:42;;;;;;;;;;;;;;;-19.77;64.34;100090.81;1844247;77;22054;-66
2021/01/17 03:16:11;;;;;;;;;;;;;;;-19.78;64.21;100085.75;1844190;78;21264;-66
2021/01/17 03:18:40;;;;;;;;;;;;;;;-19.79;64.16;100084.03;1844290;78;20107;-66
2021/01/17 03:21:08;;;;;;;;;;;;;;;-19.81;64.12;100077.73;1844225;78;20574;-66
2021/01/17 03:23:36;;;;;;;;;;;;;;;-19.84;64.01;100086.22;1844289;78;20421;-66
2021/01/17 03:26:04;;;;;;;;;;;;;;;-19.88;63.98;100074.77;1844382;78;22059;-66
2021/01/17 03:28:32;;;;;;;;;;;;;;;-19.89;64.08;100070.57;1844254;78;20503;-66
2021/01/17 03:31:00;;;;;;;;;;;;;;;-19.88;64.27;100064.48;1844276;78;20381;-66
2021/01/17 03:33:28;;;;;;;;;;;;;;;-19.87;64.46;100067.81;1844383;78;20405;-65
2021/01/17 03:35:56;;;;;;;;;;;;;;;-19.85;64.39;100068.39;1844545;78;20389;-66
2021/01/17 03:38:24;;;;;;;;;;;;;;;-19.86;64.29;100070.39;1844418;78;21910;-67
2021/01/17 03:40:52;;;;;;;;;;;;;;;-19.86;64.19;100072.88;1844385;78;20576;-67
2021/01/17 03:43:20;;;;;;;;;;;;;;;-19.86;64.14;100069.53;1844452;78;20408;-66
2021/01/17 03:45:48;;;;;;;;;;;;;;;-19.83;64.28;100068.49;1844455;77;20525;-66
2021/01/17 03:48:16;;;;;;;;;;;;;;;-19.80;64.30;100069.55;1844444;78;20130;-66
2021/01/17 03:50:44;;;;;;;;;;;;;;;-19.78;64.21;100069.27;1844373;78;22824;-66
2021/01/17 03:53:12;;;;;;;;;;;;;;;-19.77;64.11;100064.78;1840785;77;20503;-66
2021/01/17 03:55:40;;;;;;;;;;;;;;;-19.78;64.07;100059.73;1838237;78;20398;-66
2021/01/17 03:58:09;;;;;;;;;;;;;;;-19.78;64.11;100060.97;1838240;77;20123;-66
2021/01/17 04:00:37;;;;;;;;;;;;;;;-19.78;64.19;100059.73;1838267;78;20401;-66
2021/01/17 04:03:05;;;;;;;;;;;;;;;-19.77;64.34;100057.35;1838273;78;21829;-66
2021/01/17 04:05:33;;;;;;;;;;;;;;;-19.73;64.54;100054.69;1838124;77;20475;-66
2021/01/17 04:08:01;;;;;;;;;;;;;;;-19.70;64.66;100054.50;1838253;78;20524;-66
2021/01/17 04:10:29;;;;;;;;;;;;;;;-19.70;64.63;100058.60;1838303;78;20645;-66
2021/01/17 04:12:57;;;;;;;;;;;;;;;-19.70;64.57;100058.60;1838248;77;20128;-66
2021/01/17 04:15:25;;;;;;;;;;;;;;;-19.71;64.60;100050.31;1838221;78;23428;-66
2021/01/17 04:17:53;;;;;;;;;;;;;;;-19.68;64.66;100052.12;1838146;78;20527;-66
2021/01/17 04:20:21;;;;;;;;;;;;;;;-19.68;64.58;100046.78;1838216;77;20409;-66
2021/01/17 04:22:49;;;;;;;;;;;;;;;-19.66;64.67;100053.94;1838252;77;20483;-66
2021/01/17 04:25:18;;;;;;;;;;;;;;;-19.65;64.70;100049.45;1838331;77;20412;-66
2021/01/17 04:27:46;;;;;;;;;;;;;;;-19.67;64.76;100048.50;1844738;77;21992;-66
2021/01/17 04:30:16;;;;;;;;;;;;;;;-19.67;64.62;100046.02;1838129;78;20689;-67
2021/01/17 04:32:44;;;;;;;;;;;;;;;-19.68;64.55;100048.02;1838114;77;20115;-67
2021/01/17 04:35:13;;;;;;;;;;;;;;;-19.66;64.58;100050.59;1838154;78;20783;-67
2021/01/17 04:37:42;;;;;;;;;;;;;;;-19.64;64.56;100049.08;1838247;77;20112;-66
2021/01/17 04:40:12;;;;;;;;;;;;;;;-19.64;64.42;100056.52;1838272;78;21404;-66
2021/01/17 04:42:41;;;;;;;;;;;;;;;-19.63;64.41;100047.94;1838151;78;20111;-66
2021/01/17 04:45:10;;;;;;;;;;;;;;;-19.61;64.32;100045.17;1838282;78;20408;-66
2021/01/17 04:47:39;;;;;;;;;;;;;;;-19.59;64.23;100044.03;1838266;78;20628;-67
2021/01/17 04:50:08;;;;;;;;;;;;;;;-19.58;64.22;100055.62;1844663;77;20131;-66
2021/01/17 04:52:44;;;;;;;;;;;;;;;-19.55;64.16;100057.45;1838152;77;21107;-67
2021/01/17 04:55:13;;;;;;;;;;;;;;;-19.55;64.11;100060.78;1838117;77;20155;-65
2021/01/17 04:58:12;;;;;;;;;;;;;;;-19.58;64.10;100064.30;1838211;77;20405;-66
2021/01/17 05:00:41;;;;;;;;;;;;;;;-19.63;64.13;100072.72;1838136;78;20409;-66
2021/01/17 05:03:25;;;;;;;;;;;;;;;-19.66;64.24;100072.53;1838231;77;20144;-66
2021/01/17 05:06:31;;;;;;;;;;;;;;;-19.66;64.28;100066.33;1838199;77;22133;-65
2021/01/17 05:09:02;;;;;;;;;;;;;;;-19.64;64.50;100064.81;1786774;79;20485;-66
2021/01/17 05:11:41;;;;;;;;;;;;;;;-19.58;64.73;100065.92;1786857;80;20109;-67
2021/01/17 05:14:17;;;;;;;;;;;;;;;-19.55;64.72;100068.60;1786773;80;20611;-66
2021/01/17 05:16:46;;;;;;;;;;;;;;;-19.52;64.74;100075.85;1786818;80;20466;-66
2021/01/17 05:19:16;;;;;;;;;;;;;;;-19.51;64.84;100081.67;1786880;80;21222;-66
2021/01/17 05:21:50;;;;;;;;;;;;;;;-19.49;64.87;100073.53;1786886;80;20576;-66
2021/01/17 05:24:19;;;;;;;;;;;;;;;-19.47;64.93;100065.81;1786893;80;20458;-67
2021/01/17 05:26:54;;;;;;;;;;;;;;;-19.42;65.06;100069.44;1786790;80;20133;-67
2021/01/17 05:29:23;;;;;;;;;;;;;;;-19.37;65.11;100079.27;1786894;80;20130;-67
2021/01/17 05:31:57;;;;;;;;;;;;;;;-19.32;65.13;100071.73;1786868;80;21113;-66
2021/01/17 05:34:26;;;;;;;;;;;;;;;-19.26;65.16;100074.59;1786729;80;20138;-67
2021/01/17 05:37:05;;;;;;;;;;;;;;;-19.19;65.19;100087.38;1786864;80;20442;-66
2021/01/17 05:39:52;;;;;;;;;;;;;;;-19.15;65.27;100078.09;1786837;80;20399;-66
2021/01/17 05:42:26;;;;;;;;;;;;;;;-19.09;65.25;100070.64;1786892;79;20391;-66
2021/01/17 05:44:57;;;;;;;;;;;;;;;-19.03;65.53;100071.41;1784404;79;22122;-66
2021/01/17 05:47:26;;;;;;;;;;;;;;;-18.94;65.57;100081.89;1772814;80;20478;-66
2021/01/17 05:49:58;;;;;;;;;;;;;;;-18.87;65.43;100077.78;1786133;80;20446;-66
2021/01/17 05:52:26;;;;;;;;;;;;;;;-18.79;65.40;100075.77;1785277;80;20568;-66
2021/01/17 05:54:55;;;;;;;;;;;;;;;-18.73;65.50;100064.94;1786903;80;20134;-65
2021/01/17 05:57:25;;;;;;;;;;;;;;;-18.68;65.43;100064.83;1786803;80;21920;-66
2021/01/17 05:59:53;;;;;;;;;;;;;;;-18.60;65.36;100063.66;1786737;80;20291;-66
2021/01/17 06:02:23;;;;;;;;;;;;;;;-18.55;65.32;100070.97;1786820;80;20383;-65
2021/01/17 06:04:55;;;;;;;;;;;;;;;-18.51;65.46;100064.17;1786766;80;20113;-65
2021/01/17 06:07:25;;;;;;;;;;;;;;;-18.46;65.56;100067.79;1787092;80;20171;-65
2021/01/17 06:10:06;;;;;;;;;;;;;;;-18.39;65.60;100062.80;1787921;80;21186;-65
2021/01/17 06:12:36;;;;;;;;;;;;;;;-18.31;66.40;100065.32;1787799;80;21825;-65
2021/01/17 06:15:09;;;;;;;;;;;;;;;-18.21;65.99;100063.84;1787700;80;20395;-65
2021/01/17 06:17:48;;;;;;;;;;;;;;;-18.11;65.77;100068.58;1787891;80;20395;-65
2021/01/17 06:20:24;;;;;;;;;;;;;;;-18.00;65.55;100069.20;1786934;80;20390;-65
2021/01/17 06:22:56;;;;;;;;;;;;;;;-17.90;65.54;100066.44;1787795;80;22292;-66
2021/01/17 06:25:28;;;;;;;;;;;;;;;-17.79;65.48;100067.91;1787853;80;20177;-66
2021/01/17 06:28:12;;;;;;;;;;;;;;;-17.67;65.37;100075.20;1787872;80;20113;-66
2021/01/17 06:30:40;;;;;;;;;;;;;;;-17.59;65.28;100071.48;1787933;80;20109;-66
2021/01/17 06:33:13;;;;;;;;;;;;;;;-17.48;65.43;100074.16;1787899;80;20148;-66
2021/01/17 06:35:42;;;;;;;;;;;;;;;-17.35;65.46;100074.06;1786233;80;20415;-67
2021/01/17 06:38:16;;;;;;;;;;;;;;;-17.23;65.60;100072.25;1787844;80;20113;-67
2021/01/17 06:40:44;;;;;;;;;;;;;;;-17.10;65.49;100077.47;1785634;80;20205;-66
2021/01/17 06:43:13;;;;;;;;;;;;;;;-16.96;65.50;100070.75;1787848;80;20786;-66
2021/01/17 06:45:43;;;;;;;;;;;;;;;-16.84;65.49;100065.18;1787857;80;20145;-66
2021/01/17 06:48:22;;;;;;;;;;;;;;;-16.72;65.57;100073.66;1787908;80;21257;-66
2021/01/17 06:50:50;;;;;;;;;;;;;;;-16.58;65.65;100073.96;1787917;80;20656;-65
2021/01/17 06:53:26;;;;;;;;;;;;;;;-16.42;65.65;100075.61;1787819;80;20157;-66
2021/01/17 06:56:16;;;;;;;;;;;;;;;-16.27;65.49;100078.86;1787872;80;20539;-66
2021/01/17 06:58:45;;;;;;;;;;;;;;;-16.13;65.58;100076.69;1787926;80;20462;-66
2021/01/17 07:01:17;;;;;;;;;;;;;;;-15.97;65.49;100075.40;1787884;80;22313;-66
2021/01/17 07:03:52;;;;;;;;;;;;;;;-15.84;65.38;100078.50;1787849;80;20482;-66
2021/01/17 07:06:47;;;;;;;;;;;;;;;-15.75;65.16;100082.31;1788012;80;20460;-67
2021/01/17 07:09:27;;;;;;;;;;;;;;;-15.68;65.03;100088.45;1787967;80;20408;-67
2021/01/17 07:12:00;;;;;;;;;;;;;;;-15.61;65.11;100083.84;1787620;80;20467;-66
2021/01/17 07:14:28;;;;;;;;;;;;;;;-15.52;65.20;100080.48;1787985;80;21198;-66
2021/01/17 07:16:59;;;;;;;;;;;;;;;-15.41;65.21;100079.75;1787938;80;20705;-66
2021/01/17 07:19:31;;;;;;;;;;;;;;;-15.35;65.01;100083.78;1788073;80;20406;-66
2021/01/17 07:22:05;;;;;;;;;;;;;;;-15.25;65.03;100088.83;1788050;80;20149;-67
2021/01/17 07:24:33;;;;;;;;;;;;;;;-15.18;64.85;100090.41;1788074;80;20380;-66
2021/01/17 07:27:12;;;;;;;;;;;;;;;-15.06;65.04;100091.37;1788019;80;21359;-71
2021/01/17 07:29:40;;;;;;;;;;;;;;;-14.95;64.82;100084.37;1787863;80;20478;-67
2021/01/17 07:32:31;;;;;;;;;;;;;;;-14.86;64.61;100078.17;1788025;80;20133;-66
2021/01/17 07:35:10;;;;;;;;;;;;;;;-14.77;64.51;100069.34;1787836;80;20623;-66
2021/01/17 07:37:41;;;;;;;;;;;;;;;-14.67;64.35;100062.73;1788001;80;20129;-66
2021/01/17 07:40:10;;;;;;;;;;;;;;;-14.58;64.33;100061.50;1788139;80;22097;-66
2021/01/17 07:42:38;;;;;;;;;;;;;;;-14.48;63.98;100069.41;1787939;80;20113;-67
2021/01/17 07:45:12;;;;;;;;;;;;;;;-14.39;63.85;100071.84;1788005;80;20479;-66
2021/01/17 07:47:42;;;;;;;;;;;;;;;-14.34;63.83;100065.80;1787682;80;20703;-66
2021/01/17 07:50:12;;;;;;;;;;;;;;;-14.24;63.74;100065.41;1788002;80;20113;-66
2021/01/17 07:52:48;;;;;;;;;;;;;;;-14.13;63.50;100064.63;1787946;80;21185;-67
2021/01/17 07:55:18;;;;;;;;;;;;;;;-14.04;63.44;100064.63;1787922;80;20152;-67
2021/01/17 07:57:46;;;;;;;;;;;;;;;-13.91;63.52;100063.46;1760021;80;20157;-66
2021/01/17 08:00:15;;;;;;;;;;;;;;;-13.76;63.65;100064.50;1788046;80;20529;-67
2021/01/17 08:02:44;;;;;;;;;;;;;;;-13.63;63.55;100057.55;1788088;80;20145;-67
2021/01/17 08:05:12;;;;;;;;;;;;;;;-13.48;63.25;100054.78;1735430;80;21204;-66
2021/01/17 08:07:40;;;;;;;;;;;;;;;-13.35;63.62;100058.63;1787798;80;20479;-66
2021/01/17 08:10:09;;;;;;;;;;;;;;;-13.17;63.44;100060.58;1786854;80;20145;-66
2021/01/17 08:12:41;;;;;;;;;;;;;;;-12.97;63.13;100063.42;1786823;80;20752;-66
2021/01/17 08:15:17;;;;;;;;;;;;;;;-12.81;62.61;100069.88;1786851;80;20121;-67
2021/01/17 08:17:45;;;;;;;;;;;;;;;-12.63;62.57;100065.52;1786884;80;22085;-67
2021/01/17 08:20:27;;;;;;;;;;;;;;;-12.46;62.18;100061.13;1786832;80;20579;-67
2021/01/17 08:23:02;;;;;;;;;;;;;;;-12.32;62.44;100073.74;1786912;80;20403;-67
2021/01/17 08:25:49;;;;;;;;;;;;;;;-12.22;61.75;100077.03;1786827;80;20129;-67
2021/01/17 08:28:32;;;;;;;;;;;;;;;-12.08;62.15;100074.16;1786995;80;20492;-67
2021/01/17 08:31:00;;;;;;;;;;;;;;;-11.90;61.77;100074.37;1787089;80;22142;-67
2021/01/17 08:33:28;;;;;;;;;;;;;;;-11.72;61.40;100078.28;1786747;80;20533;-67
2021/01/17 08:35:56;;;;;;;;;;;;;;;-11.56;60.84;100076.70;1786895;80;20234;-64
2021/01/17 08:38:24;;;;;;;;;;;;;;;-11.44;60.11;100073.34;1786803;80;20482;-66
2021/01/17 08:40:53;;;;;;;;;;;;;;;-11.39;59.51;100070.98;1786942;80;20467;-66
2021/01/17 08:43:31;;;;;;;;;;;;;;;-11.35;59.25;100074.05;1786955;80;22158;-65
2021/01/17 08:45:59;;;;;;;;;;;;;;;-11.19;59.58;100067.02;1786919;80;20480;-66
2021/01/17 08:48:29;;;;;;;;;;;;;;;-10.97;59.00;100068.94;1786779;80;20463;-66
2021/01/17 08:51:00;;;;;;;;;;;;;;;-10.83;58.80;100068.95;1786767;80;20924;-66
2021/01/17 08:53:31;;;;;;;;;;;;;;;-10.74;58.82;100065.84;1783791;80;20141;-67
2021/01/17 08:56:03;;;;;;;;;;;;;;;-10.63;58.62;100060.72;1786951;80;21195;-66
2021/01/17 08:58:34;;;;;;;;;;;;;;;-10.51;58.17;100058.16;1786822;80;20500;-67
2021/01/17 09:01:07;;;;;;;;;;;;;;;-10.42;57.93;100056.31;1786860;80;20373;-66
2021/01/17 09:03:45;;;;;;;;;;;;;;;-10.35;57.67;100054.37;1786939;80;20528;-68
2021/01/17 09:06:17;;;;;;;;;;;;;;;-10.31;57.16;100063.73;1786942;79;20529;-65
2021/01/17 09:08:57;;;;;;;;;;;;;;;-10.34;56.54;100056.49;1787220;80;22318;-65
2021/01/17 09:11:32;;;;;;;;;;;;;;;-10.46;56.53;100061.66;1787849;80;20501;-65
2021/01/17 09:14:18;;;;;;;;;;;;;;;-10.53;56.68;100062.70;1787939;80;20133;-66
2021/01/17 09:16:48;;;;;;;;;;;;;;;-10.54;56.71;100058.47;1768097;80;20479;-67
2021/01/17 09:19:18;;;;;;;;;;;;;;;-10.59;56.96;100057.48;1788041;80;20386;-66
2021/01/17 09:21:50;;;;;;;;;;;;;;;-10.64;56.76;100055.23;1787916;80;21272;-66
2021/01/17 09:24:32;;;;;;;;;;;;;;;-10.72;56.69;100062.56;1787961;80;20447;-65
2021/01/17 09:27:04;;;;;;;;;;;;;;;-10.75;56.56;100056.17;1787683;80;20403;-65
2021/01/17 09:29:37;;;;;;;;;;;;;;;-10.73;56.46;100049.94;1787817;80;20204;-66
2021/01/17 09:32:07;;;;;;;;;;;;;;;-10.76;56.87;100043.15;1787931;80;20149;-66
2021/01/17 09:34:38;;;;;;;;;;;;;;;-10.81;57.06;100048.08;1787886;80;21219;-65
2021/01/17 09:37:11;;;;;;;;;;;;;;;-10.74;57.34;100045.30;1787900;80;20166;-65
2021/01/17 09:39:42;;;;;;;;;;;;;;;-10.67;57.17;100045.08;1787956;80;20149;-65
2021/01/17 09:42:11;;;;;;;;;;;;;;;-10.62;57.15;100049.84;1787908;80;20129;-66
2021/01/17 09:44:40;;;;;;;;;;;;;;;-10.54;56.96;100045.48;1787992;80;20149;-65
2021/01/17 09:47:19;;;;;;;;;;;;;;;-10.45;56.62;100044.89;1787911;80;21258;-65
2021/01/17 09:49:47;;;;;;;;;;;;;;;-10.40;56.29;100043.36;1787855;80;20113;-66
2021/01/17 09:52:20;;;;;;;;;;;;;;;-10.36;56.15;100040.09;1787852;80;20157;-66
2021/01/17 09:54:52;;;;;;;;;;;;;;;-10.32;56.16;100041.03;1787923;80;20699;-66
2021/01/17 09:57:25;;;;;;;;;;;;;;;-10.36;56.26;100037.98;1787928;80;20478;-66
2021/01/17 09:59:54;;;;;;;;;;;;;;;-10.34;56.56;100040.98;1787871;80;22184;-66
2021/01/17 10:02:23;;;;;;;;;;;;;;;-10.33;56.39;100038.91;1787829;80;20491;-66
2021/01/17 10:04:51;;;;;;;;;;;;;;;-10.32;56.19;100045.66;1787890;80;20141;-66
2021/01/17 10:07:23;;;;;;;;;;;;;;;-10.32;56.30;100036.84;1787864;80;20581;-67
2021/01/17 10:09:54;;;;;;;;;;;;;;;-10.33;56.32;100040.17;1787088;79;20504;-67
2021/01/17 10:12:26;;;;;;;;;;;;;;;-10.33;56.37;100036.80;1771435;80;21196;-67
2021/01/17 10:14:55;;;;;;;;;;;;;;;-10.35;56.21;100031.73;1771375;81;20438;-66
2021/01/17 10:17:23;;;;;;;;;;;;;;;-10.37;56.15;100034.61;1781427;80;20399;-66
2021/01/17 10:19:51;;;;;;;;;;;;;;;-10.38;56.17;100029.53;1786670;80;20421;-66
2021/01/17 10:22:18;;;;;;;;;;;;;;;-10.39;56.31;100034.97;1786322;80;20154;-67
2021/01/17 10:24:46;;;;;;;;;;;;;;;-10.44;55.81;100034.02;1786810;80;22105;-66
2021/01/17 10:27:16;;;;;;;;;;;;;;;-10.50;55.80;100038.47;1786820;80;20526;-66
2021/01/17 10:29:44;;;;;;;;;;;;;;;-10.54;55.76;100043.38;1786720;80;20168;-67
2021/01/17 10:32:16;;;;;;;;;;;;;;;-10.60;55.94;100044.45;1786763;80;20391;-67
2021/01/17 10:34:45;;;;;;;;;;;;;;;-10.63;56.00;100046.48;1786789;80;20184;-67
2021/01/17 10:37:17;;;;;;;;;;;;;;;-10.66;55.81;100037.98;1786718;80;22367;-67
2021/01/17 10:39:47;;;;;;;;;;;;;;;-10.66;56.05;100036.73;1786898;80;21218;-66
2021/01/17 10:42:25;;;;;;;;;;;;;;;-10.64;56.11;100034.70;1786700;80;20491;-67
2021/01/17 10:45:10;;;;;;;;;;;;;;;-10.59;56.03;100037.36;1786706;80;20379;-67
2021/01/17 10:48:02;;;;;;;;;;;;;;;-10.60;56.05;100037.76;1786785;80;20129;-67
2021/01/17 10:50:31;;;;;;;;;;;;;;;-10.58;55.92;100041.17;1786767;80;22181;-67
2021/01/17 10:53:10;;;;;;;;;;;;;;;-10.56;56.16;100042.48;1786581;80;37702;-67
2021/01/17 10:55:39;;;;;;;;;;;;;;;-10.54;55.93;100036.68;1786815;80;20387;-67
2021/01/17 10:58:08;;;;;;;;;;;;;;;-10.57;55.85;100038.25;1786695;80;20168;-68
2021/01/17 11:00:36;;;;;;;;;;;;;;;-10.59;55.88;100044.91;1786833;80;20502;-67
2021/01/17 11:03:06;;;;;;;;;;;;;;;-10.58;55.79;100042.43;1786708;80;22177;-67
2021/01/17 11:05:34;;;;;;;;;;;;;;;-10.60;55.98;100044.05;1786625;80;20431;-67
2021/01/17 11:08:02;;;;;;;;;;;;;;;-10.60;55.94;100044.45;1786709;79;20125;-66
2021/01/17 11:10:31;;;;;;;;;;;;;;;-10.62;55.67;100044.81;1767061;80;20144;-67
2021/01/17 11:12:59;;;;;;;;;;;;;;;-10.66;56.00;100042.61;1797608;78;20133;-68
2021/01/17 11:15:34;;;;;;;;;;;;;;;-10.68;55.82;100042.12;1797548;80;21383;-67
2021/01/17 11:18:02;;;;;;;;;;;;;;;-10.71;55.74;100040.37;1797157;80;20366;-67
2021/01/17 11:20:31;;;;;;;;;;;;;;;-10.70;56.03;100041.22;1797655;78;20133;-67
2021/01/17 11:23:04;;;;;;;;;;;;;;;-10.70;55.91;100038.30;1797534;80;20113;-65
2021/01/17 11:25:33;;;;;;;;;;;;;;;-10.75;55.95;100031.43;1797597;80;20112;-68
2021/01/17 11:28:02;;;;;;;;;;;;;;;-10.83;55.55;100038.38;1797583;80;22270;-67
2021/01/17 11:30:31;;;;;;;;;;;;;;;-10.94;55.94;100037.60;1797463;80;20112;-68
2021/01/17 11:33:12;;;;;;;;;;;;;;;-11.00;56.25;100042.04;1797523;80;20132;-68
2021/01/17 11:35:41;;;;;;;;;;;;;;;-11.01;56.59;100040.34;1797576;80;20109;-66
2021/01/17 11:38:09;;;;;;;;;;;;;;;-10.97;56.69;100035.00;1797562;80;20109;-66
2021/01/17 11:40:37;;;;;;;;;;;;;;;-10.97;56.44;100031.22;1797582;80;22404;-67
2021/01/17 11:43:11;;;;;;;;;;;;;;;-10.98;56.43;100031.62;1797606;80;20536;-67
2021/01/17 11:45:44;;;;;;;;;;;;;;;-10.99;56.45;100032.44;1797615;80;20141;-67
2021/01/17 11:48:12;;;;;;;;;;;;;;;-11.02;56.49;100035.26;1797588;80;20113;-67
2021/01/17 11:50:44;;;;;;;;;;;;;;;-11.07;56.45;100029.23;1797694;80;20391;-67
2021/01/17 11:53:14;;;;;;;;;;;;;;;-11.10;56.63;100026.22;1797593;80;20175;-66
2021/01/17 11:55:45;;;;;;;;;;;;;;;-11.15;56.59;100027.34;1797695;80;20478;-66
2021/01/17 11:58:15;;;;;;;;;;;;;;;-11.22;56.37;100026.73;1797698;80;20463;-65
2021/01/17 12:00:51;;;;;;;;;;;;;;;-11.25;56.35;100032.92;1797793;80;20587;-67
2021/01/17 12:03:35;;;;;;;;;;;;;;;-11.32;56.39;100034.79;1797731;80;20128;-67
2021/01/17 12:06:18;;;;;;;;;;;;;;;-11.38;56.58;100032.08;1797785;80;22228;-66
2021/01/17 12:08:57;;;;;;;;;;;;;;;-11.38;56.87;100040.02;1797779;80;20403;-66
2021/01/17 12:11:46;;;;;;;;;;;;;;;-11.41;56.99;100040.78;1797845;80;20553;-67
2021/01/17 12:14:23;;;;;;;;;;;;;;;-11.42;57.15;100032.79;1797620;80;21918;-66
2021/01/17 12:16:55;;;;;;;;;;;;;;;-11.43;57.16;100048.67;1797786;80;20475;-66
2021/01/17 12:19:24;;;;;;;;;;;;;;;-11.47;57.20;100048.97;1797721;80;21436;-67
2021/01/17 12:21:59;;;;;;;;;;;;;;;-11.49;57.27;100049.72;1797751;80;20463;-66
2021/01/17 12:24:27;;;;;;;;;;;;;;;-11.49;57.33;100054.34;1797731;80;20128;-66
2021/01/17 12:26:56;;;;;;;;;;;;;;;-11.53;57.19;100052.94;1797628;80;20116;-66
2021/01/17 12:29:24;;;;;;;;;;;;;;;-11.61;57.41;100055.23;1797751;79;20134;-66
2021/01/17 12:31:52;;;;;;;;;;;;;;;-11.65;57.46;100055.94;1797727;80;22204;-66
2021/01/17 12:34:20;;;;;;;;;;;;;;;-11.69;57.50;100054.13;1797577;80;20669;-66
2021/01/17 12:36:48;;;;;;;;;;;;;;;-11.72;57.47;100060.30;1797692;80;20371;-66
2021/01/17 12:39:18;;;;;;;;;;;;;;;-11.77;57.65;100058.47;1797628;80;20640;-67
2021/01/17 12:41:48;;;;;;;;;;;;;;;-11.86;57.70;100061.52;1797703;80;20412;-67
2021/01/17 12:44:16;;;;;;;;;;;;;;;-11.97;57.86;100062.81;1797687;80;21201;-66
2021/01/17 12:46:44;;;;;;;;;;;;;;;-12.06;58.17;100071.30;1797659;80;20551;-66
2021/01/17 12:49:16;;;;;;;;;;;;;;;-12.09;58.39;100079.58;1797674;80;20148;-66